Time;durP1;ratioP1;P1;durP2;ratioP2;P2;SDS_P1;SDS_P2;PMS_P1;PMS_P2;Temp;Humidity;BMP_temperature;BMP_pressure;BME280_temperature;BME280_humidity;BME280_pressure;Samples;Min_cycle;Max_cycle;Signal;HPM_P1;HPM_P2
2023/07/16 00:00:19;;;;;;;12.18;3.75;;;18.80;64.80;;;;;;5047050;28;20166;-77
2023/07/16 00:02:48;;;;;;;19.52;4.32;;;18.80;64.80;;;;;;5029442;28;20375;-77
2023/07/16 00:05:15;;;;;;;18.48;5.85;;;18.80;64.90;;;;;;5037078;28;20028;-77
2023/07/16 00:07:41;;;;;;;12.15;4.50;;;18.80;65.00;;;;;;5048160;28;20106;-76
2023/07/16 00:10:07;;;;;;;12.05;3.85;;;18.70;64.80;;;;;;5055057;28;20032;-77
2023/07/16 00:12:34;;;;;;;14.40;4.57;;;18.70;64.80;;;;;;5042600;28;20035;-77
2023/07/16 00:15:00;;;;;;;11.15;4.45;;;18.80;65.10;;;;;;5031240;28;20028;-77
2023/07/16 00:17:26;;;;;;;10.52;3.22;;;18.80;65.10;;;;;;5053447;28;20495;-78
2023/07/16 00:19:53;;;;;;;15.45;6.07;;;18.80;65.10;;;;;;5049720;28;20071;-77
2023/07/16 00:22:22;;;;;;;15.02;4.00;;;18.70;65.00;;;;;;5050588;28;20078;-77
2023/07/16 00:24:48;;;;;;;13.15;3.83;;;18.70;65.00;;;;;;5056286;28;20480;-77
2023/07/16 00:27:15;;;;;;;10.15;4.15;;;18.70;65.00;;;;;;5054774;28;20100;-77
2023/07/16 00:29:41;;;;;;;14.45;4.93;;;18.70;65.00;;;;;;5051246;28;20514;-77
2023/07/16 00:32:07;;;;;;;9.50;3.65;;;18.70;65.60;;;;;;5059321;28;20127;-77
2023/07/16 00:34:33;;;;;;;15.25;4.05;;;18.70;65.10;;;;;;5039959;28;20049;-76
2023/07/16 00:37:02;;;;;;;19.55;6.10;;;18.70;65.00;;;;;;5037928;28;20032;-77
2023/07/16 00:39:29;;;;;;;14.43;5.38;;;18.70;65.10;;;;;;5048857;28;20404;-77
2023/07/16 00:41:56;;;;;;;16.58;4.10;;;18.70;65.10;;;;;;5054818;28;20484;-77
2023/07/16 00:44:25;;;;;;;14.57;4.40;;;18.70;65.10;;;;;;5049859;28;20549;-76
2023/07/16 00:46:52;;;;;;;17.73;4.25;;;18.70;65.10;;;;;;5052977;28;20029;-77
2023/07/16 00:49:18;;;;;;;16.00;4.63;;;18.70;65.10;;;;;;5055887;28;20295;-77
2023/07/16 00:51:47;;;;;;;14.70;4.72;;;18.60;64.90;;;;;;5034161;28;20029;-78
2023/07/16 00:54:14;;;;;;;13.10;4.63;;;18.60;64.90;;;;;;5039734;28;20036;-78
2023/07/16 00:56:41;;;;;;;13.43;4.75;;;18.60;64.90;;;;;;5029784;28;20094;-78
2023/07/16 00:59:07;;;;;;;19.15;5.22;;;18.60;65.00;;;;;;5042747;28;20036;-77
2023/07/16 01:01:33;;;;;;;11.60;4.32;;;18.60;65.00;;;;;;5052065;28;20512;-78
2023/07/16 01:03:59;;;;;;;12.55;3.95;;;18.60;65.00;;;;;;5027297;28;20400;-78
2023/07/16 01:06:34;;;;;;;18.30;5.03;;;18.60;65.00;;;;;;5048024;28;20116;-78
2023/07/16 01:09:08;;;;;;;14.38;4.38;;;18.60;65.10;;;;;;5042315;28;20032;-77
2023/07/16 01:11:35;;;;;;;17.85;4.93;;;18.50;65.00;;;;;;5044398;28;20072;-77
2023/07/16 01:14:02;;;;;;;16.35;4.30;;;18.50;65.00;;;;;;5051309;28;20090;-76
2023/07/16 01:16:28;;;;;;;10.20;4.13;;;18.50;65.00;;;;;;5058140;28;20825;-77
2023/07/16 01:18:57;;;;;;;11.57;4.15;;;18.50;65.00;;;;;;5042110;28;20036;-77
2023/07/16 01:21:25;;;;;;;14.90;4.47;;;18.50;65.10;;;;;;5034008;28;20032;-77
2023/07/16 01:24:20;;;;;;;9.45;3.08;;;18.50;65.10;;;;;;5060627;28;20445;-76
2023/07/16 01:26:57;;;;;;;18.63;4.30;;;18.50;65.20;;;;;;5042770;28;20470;-77
2023/07/16 01:29:41;;;;;;;12.27;3.67;;;18.40;65.00;;;;;;5034417;28;20500;-77
2023/07/16 01:32:12;;;;;;;15.50;3.90;;;18.50;65.20;;;;;;5037180;28;20049;-78
2023/07/16 01:34:39;;;;;;;10.50;3.13;;;18.40;65.00;;;;;;5056776;28;20040;-78
2023/07/16 01:37:09;;;;;;;15.63;5.35;;;18.40;65.10;;;;;;5020884;28;20051;-78
2023/07/16 01:39:45;;;;;;;14.48;3.67;;;18.40;65.10;;;;;;5044740;28;20087;-78
2023/07/16 01:42:12;;;;;;;12.18;4.22;;;18.40;65.20;;;;;;5039406;28;20033;-78
2023/07/16 01:44:39;;;;;;;12.52;3.28;;;18.40;65.20;;;;;;5042277;28;20041;-78
2023/07/16 01:47:08;;;;;;;11.82;3.50;;;18.40;65.20;;;;;;5032594;28;20059;-77
2023/07/16 01:49:35;;;;;;;13.65;3.33;;;18.40;65.30;;;;;;5041309;28;20054;-78
2023/07/16 01:52:03;;;;;;;17.55;4.30;;;18.40;65.30;;;;;;5059789;28;20519;-78
2023/07/16 01:54:32;;;;;;;13.57;3.92;;;18.30;65.20;;;;;;5044052;28;20534;-78
2023/07/16 01:56:58;;;;;;;13.15;3.47;;;18.30;65.20;;;;;;5048448;28;20244;-79
2023/07/16 01:59:24;;;;;;;13.05;3.33;;;18.30;65.10;;;;;;5025826;28;20033;-77
2023/07/16 02:02:01;;;;;;;12.57;3.00;;;18.30;65.10;;;;;;5042895;28;20124;-77
2023/07/16 02:04:27;;;;;;;9.93;3.50;;;18.30;65.10;;;;;;5040263;28;20047;-78
2023/07/16 02:06:56;;;;;;;16.90;3.80;;;18.30;65.10;;;;;;5062639;28;20025;-78
2023/07/16 02:09:23;;;;;;;14.93;3.95;;;18.30;65.10;;;;;;5055316;28;20080;-77
2023/07/16 02:11:49;;;;;;;14.05;4.25;;;18.30;65.10;;;;;;5047365;28;20026;-78
2023/07/16 02:14:16;;;;;;;11.77;3.47;;;18.30;65.10;;;;;;5058753;28;20093;-78
2023/07/16 02:16:42;;;;;;;18.42;3.80;;;18.30;65.10;;;;;;5044759;28;20058;-77
2023/07/16 02:19:08;;;;;;;13.02;3.38;;;18.30;65.10;;;;;;5027347;28;20075;-78
2023/07/16 02:21:35;;;;;;;14.20;4.03;;;18.30;65.10;;;;;;5032535;28;20491;-77
2023/07/16 02:24:05;;;;;;;14.90;4.65;;;18.30;65.10;;;;;;5052449;28;20605;-77
2023/07/16 02:26:32;;;;;;;9.90;3.30;;;18.30;65.10;;;;;;5050099;28;20219;-77
2023/07/16 02:28:59;;;;;;;13.88;3.22;;;18.30;65.10;;;;;;5052154;28;20135;-78
2023/07/16 02:31:28;;;;;;;12.45;3.60;;;18.30;65.10;;;;;;5038625;28;20496;-77
2023/07/16 02:33:55;;;;;;;12.43;4.07;;;18.30;65.00;;;;;;5035142;28;20029;-77
2023/07/16 02:36:21;;;;;;;17.05;3.95;;;18.20;64.90;;;;;;5017188;28;20047;-78
2023/07/16 02:38:52;;;;;;;10.48;3.47;;;18.20;64.80;;;;;;5034516;28;20099;-77
2023/07/16 02:41:21;;;;;;;13.93;3.72;;;18.20;64.80;;;;;;5025408;28;20068;-78
2023/07/16 02:44:00;;;;;;;15.27;3.47;;;18.20;64.80;;;;;;5045231;28;20544;-78
2023/07/16 02:46:31;;;;;;;15.23;5.38;;;18.20;64.80;;;;;;5054502;28;20370;-78
2023/07/16 02:48:57;;;;;;;13.55;3.30;;;18.20;64.70;;;;;;5049647;28;20489;-78
2023/07/16 02:51:24;;;;;;;16.95;3.33;;;18.20;64.70;;;;;;5027104;28;20029;-79
2023/07/16 02:53:54;;;;;;;14.27;3.63;;;18.20;64.70;;;;;;5017564;28;20029;-77
2023/07/16 02:56:21;;;;;;;15.55;4.07;;;18.10;64.50;;;;;;5020236;28;20388;-78
2023/07/16 02:58:47;;;;;;;13.35;4.10;;;18.20;64.70;;;;;;5041813;28;20127;-78
2023/07/16 03:01:15;;;;;;;13.00;2.92;;;18.10;64.50;;;;;;5028954;28;20182;-78
2023/07/16 03:03:41;;;;;;;12.57;3.17;;;18.10;64.50;;;;;;5026140;28;20020;-78
2023/07/16 03:06:07;;;;;;;10.52;3.28;;;18.10;64.50;;;;;;5020227;28;20028;-78
2023/07/16 03:08:34;;;;;;;16.75;3.67;;;18.20;64.60;;;;;;5033881;28;20036;-79
2023/07/16 03:11:00;;;;;;;16.77;4.60;;;18.10;64.40;;;;;;5040774;28;20575;-78
2023/07/16 03:13:27;;;;;;;12.93;3.08;;;18.10;64.40;;;;;;5035229;28;20036;-78
2023/07/16 03:15:52;;;;;;;9.73;2.75;;;18.10;64.40;;;;;;5037149;28;20029;-77
2023/07/16 03:18:19;;;;;;;10.73;2.95;;;18.10;64.40;;;;;;5044392;28;20086;-78
2023/07/16 03:20:45;;;;;;;11.10;3.00;;;18.10;64.40;;;;;;5041072;28;20437;-77
2023/07/16 03:23:11;;;;;;;11.73;3.78;;;18.10;64.40;;;;;;5042230;28;20036;-77
2023/07/16 03:25:37;;;;;;;13.05;3.00;;;18.10;64.40;;;;;;5035347;28;20017;-77
2023/07/16 03:28:04;;;;;;;13.30;4.07;;;18.10;64.40;;;;;;5037076;28;20127;-77
2023/07/16 03:30:32;;;;;;;12.45;4.05;;;18.10;64.40;;;;;;5035541;28;20233;-78
2023/07/16 03:32:59;;;;;;;9.13;2.42;;;18.10;64.60;;;;;;5038126;28;20036;-78
2023/07/16 03:35:25;;;;;;;12.45;3.05;;;18.10;64.40;;;;;;5042213;28;20327;-77
2023/07/16 03:37:51;;;;;;;21.40;4.60;;;18.10;64.40;;;;;;5042011;28;20183;-78
2023/07/16 03:40:26;;;;;;;11.13;3.33;;;18.10;64.40;;;;;;5034878;28;20064;-77
2023/07/16 03:42:53;;;;;;;12.48;2.80;;;18.00;64.30;;;;;;5040205;28;20028;-78
2023/07/16 03:45:19;;;;;;;15.63;4.13;;;18.00;64.30;;;;;;5028826;28;20025;-77
2023/07/16 03:47:45;;;;;;;12.27;3.03;;;18.00;64.30;;;;;;5024575;28;20140;-78
2023/07/16 03:50:12;;;;;;;12.07;3.28;;;18.00;64.40;;;;;;5029764;28;20037;-78
2023/07/16 03:52:38;;;;;;;13.23;3.08;;;18.00;64.50;;;;;;5037457;28;20033;-78
2023/07/16 03:55:05;;;;;;;14.68;3.38;;;18.00;64.50;;;;;;5026610;28;20496;-78
2023/07/16 03:57:31;;;;;;;10.52;2.78;;;17.90;64.40;;;;;;5044648;28;20328;-77
2023/07/16 03:59:57;;;;;;;10.20;3.25;;;18.00;64.60;;;;;;5042470;28;20123;-77
2023/07/16 04:02:24;;;;;;;9.45;2.70;;;17.90;64.40;;;;;;5034900;28;20158;-77
2023/07/16 04:04:50;;;;;;;11.38;2.80;;;17.90;64.50;;;;;;5041499;28;20105;-77
2023/07/16 04:07:17;;;;;;;13.15;2.63;;;17.90;64.50;;;;;;5056242;28;20064;-77
2023/07/16 04:09:43;;;;;;;12.23;3.15;;;17.90;64.60;;;;;;5040478;28;20062;-77
2023/07/16 04:12:09;;;;;;;11.77;3.53;;;17.80;64.40;;;;;;5038058;28;20041;-76
2023/07/16 04:14:36;;;;;;;12.15;3.13;;;17.80;64.40;;;;;;5037056;28;20107;-77
2023/07/16 04:17:02;;;;;;;10.90;2.85;;;17.80;64.40;;;;;;5041496;28;20472;-75
2023/07/16 04:19:28;;;;;;;14.27;4.05;;;17.70;64.30;;;;;;5036193;28;20036;-77
2023/07/16 04:21:54;;;;;;;10.73;2.88;;;17.70;64.30;;;;;;5023331;28;20056;-77
2023/07/16 04:24:20;;;;;;;14.25;4.55;;;17.70;64.30;;;;;;5045872;28;20041;-77
2023/07/16 04:26:46;;;;;;;10.98;3.53;;;17.70;65.00;;;;;;5061714;28;20502;-76
2023/07/16 04:29:12;;;;;;;10.43;2.90;;;17.70;64.50;;;;;;5060028;28;20119;-77
2023/07/16 04:31:38;;;;;;;9.35;2.70;;;17.60;64.40;;;;;;5044782;28;20021;-77
2023/07/16 04:34:03;;;;;;;8.73;2.47;;;17.60;64.40;;;;;;5049221;28;20028;-77
2023/07/16 04:36:30;;;;;;;12.65;4.03;;;17.60;64.60;;;;;;5043943;28;20036;-78
2023/07/16 04:38:56;;;;;;;13.57;3.83;;;17.50;64.50;;;;;;5041140;28;20037;-78
2023/07/16 04:41:22;;;;;;;10.52;3.55;;;17.50;64.60;;;;;;5053899;28;20755;-78
2023/07/16 04:43:49;;;;;;;10.45;3.10;;;17.50;65.20;;;;;;5053102;28;20048;-78
2023/07/16 04:46:16;;;;;;;13.60;2.75;;;17.50;64.70;;;;;;5054465;28;20028;-77
2023/07/16 04:48:42;;;;;;;8.65;2.80;;;17.50;64.80;;;;;;5048852;28;20044;-77
2023/07/16 04:51:09;;;;;;;10.88;4.05;;;17.40;64.70;;;;;;5036366;28;20389;-77
2023/07/16 04:53:35;;;;;;;10.15;3.00;;;17.40;64.80;;;;;;5041196;28;20546;-78
2023/07/16 04:56:01;;;;;;;8.32;3.03;;;17.40;64.90;;;;;;5041183;28;20120;-78
2023/07/16 04:58:31;;;;;;;10.85;3.55;;;17.30;64.70;;;;;;5049816;28;20057;-78
2023/07/16 05:01:00;;;;;;;7.35;2.28;;;17.30;64.70;;;;;;5030997;28;20036;-76
2023/07/16 05:03:26;;;;;;;9.38;2.40;;;17.30;64.70;;;;;;5060406;28;20295;-77
2023/07/16 05:05:52;;;;;;;10.52;2.42;;;17.30;64.80;;;;;;5047783;28;20047;-77
2023/07/16 05:08:22;;;;;;;11.32;3.38;;;17.30;64.90;;;;;;5050941;28;20040;-77
2023/07/16 05:10:51;;;;;;;8.50;2.42;;;17.30;64.90;;;;;;5048182;28;20045;-77
2023/07/16 05:13:20;;;;;;;14.85;3.58;;;17.30;64.90;;;;;;5032180;28;20456;-77
2023/07/16 05:15:47;;;;;;;9.13;2.63;;;17.30;64.90;;;;;;5046434;28;20045;-77
2023/07/16 05:18:14;;;;;;;10.02;2.60;;;17.30;65.00;;;;;;5061071;28;20124;-77
2023/07/16 05:20:43;;;;;;;6.65;2.53;;;17.30;65.00;;;;;;5058055;28;20502;-78
2023/07/16 05:23:10;;;;;;;10.20;3.25;;;17.30;65.00;;;;;;5031149;28;20102;-78
2023/07/16 05:25:37;;;;;;;9.02;2.38;;;17.30;65.00;;;;;;5040260;28;20439;-77
2023/07/16 05:28:03;;;;;;;7.80;2.25;;;17.40;65.20;;;;;;5044974;28;20036;-78
2023/07/16 05:30:29;;;;;;;11.43;3.92;;;17.40;65.20;;;;;;5048126;28;20036;-77
2023/07/16 05:32:56;;;;;;;11.00;3.53;;;17.40;65.20;;;;;;5051577;28;20037;-77
2023/07/16 05:35:21;;;;;;;6.10;1.85;;;17.40;65.20;;;;;;5055368;28;20028;-77
2023/07/16 05:37:48;;;;;;;13.63;2.65;;;17.40;65.20;;;;;;5050813;28;20059;-77
2023/07/16 05:40:14;;;;;;;8.60;3.17;;;17.40;65.20;;;;;;5043077;28;20070;-78
2023/07/16 05:42:40;;;;;;;8.48;2.40;;;17.40;65.30;;;;;;5043267;28;20028;-78
2023/07/16 05:45:06;;;;;;;10.52;2.47;;;17.40;65.40;;;;;;5060971;28;20025;-78
2023/07/16 05:47:33;;;;;;;8.98;2.97;;;17.40;65.40;;;;;;5052332;28;20121;-77
2023/07/16 05:49:59;;;;;;;10.73;2.80;;;17.40;65.50;;;;;;5039868;28;20132;-78
2023/07/16 05:52:25;;;;;;;9.10;2.38;;;17.40;65.50;;;;;;5034570;28;20346;-80
2023/07/16 05:54:51;;;;;;;7.97;2.00;;;17.30;65.40;;;;;;5035965;28;20369;-78
2023/07/16 05:57:17;;;;;;;13.88;3.38;;;17.40;65.60;;;;;;5028231;28;20033;-78
2023/07/16 05:59:43;;;;;;;12.68;2.95;;;17.40;65.60;;;;;;5046717;28;20117;-78
2023/07/16 06:02:09;;;;;;;7.82;2.80;;;17.40;65.60;;;;;;5033214;28;20350;-79
2023/07/16 06:04:35;;;;;;;6.88;2.00;;;17.40;65.60;;;;;;5047488;28;20564;-78
2023/07/16 06:07:03;;;;;;;9.98;2.28;;;17.40;65.60;;;;;;5042141;28;20502;-78
2023/07/16 06:09:33;;;;;;;13.38;3.42;;;17.40;65.70;;;;;;5040698;28;20041;-79
2023/07/16 06:11:59;;;;;;;9.20;2.75;;;17.40;65.70;;;;;;5049043;28;20488;-79
2023/07/16 06:14:28;;;;;;;7.32;2.75;;;17.40;66.10;;;;;;5055010;28;20036;-79
2023/07/16 06:16:54;;;;;;;9.02;3.55;;;17.40;66.80;;;;;;5049861;28;20033;-78
2023/07/16 06:19:23;;;;;;;11.65;2.80;;;17.50;67.40;;;;;;5049246;28;20582;-77
2023/07/16 06:21:49;;;;;;;8.90;2.45;;;17.60;67.90;;;;;;5051591;28;20028;-81
2023/07/16 06:24:15;;;;;;;8.43;2.70;;;17.70;68.40;;;;;;5049858;28;20044;-80
2023/07/16 06:26:41;;;;;;;12.15;3.30;;;17.80;68.80;;;;;;5052764;28;20114;-81
2023/07/16 06:29:08;;;;;;;8.13;2.40;;;17.90;69.00;;;;;;5050393;28;20067;-82
2023/07/16 06:31:34;;;;;;;7.20;2.15;;;18.00;69.20;;;;;;5052050;28;20033;-81
2023/07/16 06:34:00;;;;;;;9.43;2.55;;;18.10;69.30;;;;;;5036873;28;20029;-82
2023/07/16 06:36:29;;;;;;;7.65;2.30;;;18.10;69.30;;;;;;5024871;28;20384;-83
2023/07/16 06:38:55;;;;;;;7.15;2.58;;;18.20;69.40;;;;;;5033613;28;20055;-82
2023/07/16 06:41:21;;;;;;;11.80;2.63;;;18.30;69.60;;;;;;5044712;28;20059;-81
2023/07/16 06:43:47;;;;;;;8.77;2.42;;;18.20;69.50;;;;;;5053727;28;20163;-83
2023/07/16 06:46:16;;;;;;;8.02;2.90;;;18.30;69.70;;;;;;5043050;28;20059;-84
2023/07/16 06:48:43;;;;;;;6.88;2.58;;;18.30;69.80;;;;;;5044513;28;20060;-85
2023/07/16 06:51:11;;;;;;;6.45;2.47;;;18.30;69.80;;;;;;5046965;28;20021;-82
2023/07/16 06:53:40;;;;;;;6.38;2.53;;;18.30;70.40;;;;;;5042831;28;20106;-82
2023/07/16 06:56:06;;;;;;;8.38;3.75;;;18.40;70.00;;;;;;5054127;28;20009;-84
2023/07/16 06:58:33;;;;;;;7.70;2.42;;;18.40;70.10;;;;;;5026851;28;20102;-88
2023/07/16 07:01:00;;;;;;;6.30;1.85;;;18.40;70.30;;;;;;5049929;28;20060;-86
2023/07/16 07:03:29;;;;;;;7.05;2.42;;;18.50;70.40;;;;;;5044480;28;20037;-90
2023/07/16 07:05:55;;;;;;;7.38;2.92;;;18.50;70.40;;;;;;5019407;28;20071;-85
2023/07/16 07:08:24;;;;;;;6.85;2.63;;;18.50;70.30;;;;;;5049212;28;20040;-88
2023/07/16 07:10:50;;;;;;;12.95;3.10;;;18.60;70.50;;;;;;5021693;28;20666;-80
2023/07/16 07:13:17;;;;;;;8.80;2.17;;;18.60;70.40;;;;;;5045678;28;20040;-79
2023/07/16 07:15:43;;;;;;;8.10;1.85;;;18.60;70.40;;;;;;5035083;28;20497;-81
2023/07/16 07:18:19;;;;;;;5.93;2.35;;;18.70;70.60;;;;;;5025404;28;20052;-78
2023/07/16 07:20:48;;;;;;;8.10;2.33;;;18.70;70.50;;;;;;5034701;28;20481;-81
2023/07/16 07:23:17;;;;;;;11.10;3.20;;;18.70;70.50;;;;;;5048303;28;20048;-81
2023/07/16 07:25:51;;;;;;;10.52;2.40;;;18.80;70.60;;;;;;5041938;28;20411;-83
2023/07/16 07:28:17;;;;;;;9.35;2.95;;;18.80;70.50;;;;;;5038479;28;20091;-80
2023/07/16 07:30:47;;;;;;;10.20;3.58;;;18.90;71.10;;;;;;5039826;28;20040;-81
2023/07/16 07:33:20;;;;;;;16.65;2.70;;;18.90;70.50;;;;;;5053387;28;20396;-80
2023/07/16 07:35:46;;;;;;;7.90;2.70;;;19.00;70.60;;;;;;5041796;28;20560;-81
2023/07/16 07:38:25;;;;;;;9.55;3.03;;;19.00;70.50;;;;;;5040604;28;20033;-81
2023/07/16 07:40:51;;;;;;;9.18;2.75;;;19.00;70.40;;;;;;5046210;28;20021;-82
2023/07/16 07:43:17;;;;;;;10.98;3.10;;;19.00;70.40;;;;;;5052460;28;20554;-84
2023/07/16 07:45:46;;;;;;;14.82;2.88;;;19.00;70.40;;;;;;5046907;28;20495;-81
2023/07/16 07:48:13;;;;;;;10.43;4.22;;;19.00;70.40;;;;;;5051184;28;20502;-80
2023/07/16 07:50:39;;;;;;;14.20;5.55;;;19.10;70.50;;;;;;5028086;28;20633;-80
2023/07/16 07:53:06;;;;;;;44.65;10.73;;;19.00;70.30;;;;;;5050337;28;20037;-79
2023/07/16 07:55:41;;;;;;;51.30;21.65;;;19.00;70.40;;;;;;5046792;28;20112;-87
2023/07/16 07:58:17;;;;;;;33.85;11.65;;;19.10;70.90;;;;;;5040931;28;20048;-91
2023/07/16 08:00:43;;;;;;;34.30;10.45;;;19.10;71.20;;;;;;5022928;28;20044;-86
2023/07/16 08:03:12;;;;;;;26.75;10.60;;;19.10;71.30;;;;;;5024914;28;20111;-88
2023/07/16 08:05:38;;;;;;;20.60;8.57;;;19.10;71.40;;;;;;5052314;28;20037;-91
2023/07/16 08:08:04;;;;;;;24.77;9.10;;;19.10;71.40;;;;;;5047870;28;20052;-83
2023/07/16 08:10:30;;;;;;;26.23;7.88;;;19.20;71.60;;;;;;5034986;28;20033;-94
2023/07/16 08:13:04;;;;;;;14.90;6.93;;;19.20;71.50;;;;;;5060812;28;20039;-96
2023/07/16 08:15:31;;;;;;;19.70;5.82;;;19.20;71.50;;;;;;5055475;28;20032;-96
2023/07/16 08:17:59;;;;;;;19.20;7.13;;;19.20;71.50;;;;;;5040072;28;20501;-94
2023/07/16 08:20:26;;;;;;;19.23;6.30;;;19.20;71.40;;;;;;5047154;28;20346;-95
2023/07/16 08:22:52;;;;;;;18.75;5.88;;;19.30;71.60;;;;;;5055496;28;20047;-89
2023/07/16 08:25:18;;;;;;;14.27;4.82;;;19.40;71.60;;;;;;5037503;28;20033;-92
2023/07/16 08:27:44;;;;;;;15.88;5.10;;;19.40;71.40;;;;;;5037632;28;20036;-92
2023/07/16 08:30:11;;;;;;;13.93;4.43;;;19.50;71.40;;;;;;5042004;28;20040;-91
2023/07/16 08:32:43;;;;;;;10.77;4.28;;;19.60;71.40;;;;;;5053172;28;20049;-94
2023/07/16 08:35:26;;;;;;;12.50;4.07;;;19.60;71.40;;;;;;5055961;28;20071;-95
2023/07/16 08:37:53;;;;;;;11.30;4.15;;;19.60;71.30;;;;;;5041319;28;20036;-93
2023/07/16 08:40:22;;;;;;;11.13;5.28;;;19.70;71.40;;;;;;5044934;28;20037;-92
2023/07/16 08:42:49;;;;;;;10.32;3.65;;;19.70;71.30;;;;;;5029501;28;20043;-95
2023/07/16 08:45:16;;;;;;;10.88;3.72;;;19.80;71.20;;;;;;5047968;28;20450;-91
2023/07/16 08:47:45;;;;;;;10.48;4.95;;;19.90;71.10;;;;;;5054541;28;20039;-95
2023/07/16 08:50:12;;;;;;;8.63;2.80;;;20.10;71.10;;;;;;5031627;28;20033;-83
2023/07/16 08:52:39;;;;;;;10.35;3.40;;;20.30;71.00;;;;;;5052107;28;20068;-80
2023/07/16 08:55:06;;;;;;;11.65;3.40;;;20.60;70.90;;;;;;5046966;28;20086;-77
2023/07/16 08:57:35;;;;;;;10.43;3.35;;;20.90;70.80;;;;;;5042625;28;20086;-76
2023/07/16 09:00:02;;;;;;;8.40;2.67;;;21.30;70.50;;;;;;5048291;28;20630;-78
2023/07/16 09:02:28;;;;;;;6.97;3.15;;;21.80;70.40;;;;;;5051614;28;20213;-77
2023/07/16 09:04:55;;;;;;;11.35;2.88;;;22.20;69.80;;;;;;5044558;28;20040;-78
2023/07/16 09:07:27;;;;;;;6.18;2.20;;;22.60;69.50;;;;;;5037968;28;20518;-77
2023/07/16 09:09:59;;;;;;;11.40;2.58;;;22.90;69.10;;;;;;5045377;28;20248;-78
2023/07/16 09:12:26;;;;;;;12.02;2.55;;;23.20;68.70;;;;;;5032120;28;20063;-80
2023/07/16 09:14:58;;;;;;;13.57;2.28;;;23.40;68.50;;;;;;5048094;28;20530;-77
2023/07/16 09:17:30;;;;;;;6.38;2.10;;;23.80;68.50;;;;;;5042727;28;20041;-85
2023/07/16 09:19:56;;;;;;;8.85;2.35;;;24.00;68.00;;;;;;5048910;28;20044;-84
2023/07/16 09:22:22;;;;;;;11.05;3.03;;;24.20;67.80;;;;;;5025727;28;20354;-85
2023/07/16 09:24:49;;;;;;;9.05;2.20;;;24.30;67.50;;;;;;5051719;28;20037;-85
2023/07/16 09:27:15;;;;;;;5.07;1.65;;;24.20;67.10;;;;;;5050158;28;20029;-80
2023/07/16 09:29:41;;;;;;;5.15;1.90;;;24.10;67.00;;;;;;5046697;28;20044;-80
2023/07/16 09:32:07;;;;;;;8.82;2.15;;;23.90;67.00;;;;;;5039810;28;20048;-83
2023/07/16 09:34:33;;;;;;;5.72;1.90;;;23.80;67.20;;;;;;5048645;28;20173;-81
2023/07/16 09:37:01;;;;;;;7.50;2.08;;;23.70;67.30;;;;;;5051478;28;20037;-81
2023/07/16 09:39:28;;;;;;;7.43;2.63;;;23.60;67.20;;;;;;5043707;28;20907;-82
2023/07/16 09:41:57;;;;;;;4.97;1.80;;;23.50;67.00;;;;;;5031830;28;20036;-77
2023/07/16 09:44:23;;;;;;;2.53;1.55;;;23.50;67.00;;;;;;5042891;28;20118;-79
2023/07/16 09:46:49;;;;;;;5.28;1.42;;;23.60;67.00;;;;;;5045273;28;20024;-79
2023/07/16 09:49:21;;;;;;;2.17;1.15;;;23.70;66.90;;;;;;5053991;28;20728;-83
2023/07/16 09:51:51;;;;;;;7.63;1.65;;;23.80;66.90;;;;;;5011640;28;20029;-81
2023/07/16 09:54:18;;;;;;;5.95;1.73;;;23.80;66.70;;;;;;5040400;28;20036;-83
2023/07/16 09:56:55;;;;;;;5.28;1.55;;;23.80;66.60;;;;;;5031843;28;20033;-82
2023/07/16 09:59:28;;;;;;;3.67;1.10;;;23.80;66.40;;;;;;5051531;28;20499;-83
2023/07/16 10:01:56;;;;;;;7.03;2.00;;;23.80;66.30;;;;;;5012870;28;20071;-82
2023/07/16 10:04:26;;;;;;;3.28;1.25;;;23.90;66.30;;;;;;5036344;28;20530;-82
2023/07/16 10:06:59;;;;;;;7.30;1.67;;;24.00;66.20;;;;;;5053096;28;20147;-82
2023/07/16 10:09:56;;;;;;;7.13;1.55;;;24.20;66.10;;;;;;5038513;28;20035;-83
2023/07/16 10:12:26;;;;;;;4.13;1.13;;;24.40;65.80;;;;;;5050926;28;20045;-84
2023/07/16 10:14:53;;;;;;;4.18;1.20;;;24.70;65.90;;;;;;5031001;28;20051;-82
2023/07/16 10:17:22;;;;;;;2.63;0.98;;;25.00;65.80;;;;;;5029582;28;20547;-81
2023/07/16 10:20:07;;;;;;;4.55;1.30;;;25.30;65.00;;;;;;5051905;28;20037;-83
2023/07/16 10:22:40;;;;;;;4.20;1.80;;;25.50;64.50;;;;;;5048823;28;20299;-83
2023/07/16 10:25:10;;;;;;;4.30;1.35;;;25.60;64.30;;;;;;5038948;28;20363;-84
2023/07/16 10:27:37;;;;;;;5.70;2.08;;;25.70;64.10;;;;;;5050229;28;20635;-82
2023/07/16 10:30:05;;;;;;;5.35;1.48;;;25.80;64.40;;;;;;5042207;28;20028;-82
2023/07/16 10:32:33;;;;;;;10.38;2.58;;;25.90;63.60;;;;;;5031834;28;20086;-79
2023/07/16 10:35:04;;;;;;;2.55;1.05;;;26.00;63.40;;;;;;5017285;28;20469;-80
2023/07/16 10:37:31;;;;;;;5.93;1.80;;;26.00;63.20;;;;;;5034299;28;20044;-80
2023/07/16 10:39:59;;;;;;;6.90;1.63;;;26.20;63.10;;;;;;5013557;28;20555;-80
2023/07/16 10:42:27;;;;;;;10.07;2.03;;;26.30;62.80;;;;;;5017867;28;20033;-84
2023/07/16 10:45:04;;;;;;;4.32;1.70;;;26.50;62.70;;;;;;5008581;28;20501;-83
2023/07/16 10:47:33;;;;;;;4.68;1.83;;;26.60;62.40;;;;;;5017966;28;20073;-82
2023/07/16 10:50:00;;;;;;;6.32;1.80;;;26.80;62.30;;;;;;5004763;28;20044;-83
2023/07/16 10:52:36;;;;;;;6.75;2.05;;;26.90;62.00;;;;;;4999049;28;20056;-81
2023/07/16 10:55:03;;;;;;;6.00;2.08;;;27.00;61.70;;;;;;5009664;28;20039;-77
2023/07/16 10:57:33;;;;;;;4.57;1.58;;;27.10;61.30;;;;;;5011624;28;20147;-77
2023/07/16 11:00:10;;;;;;;5.63;1.48;;;27.20;61.20;;;;;;5007534;28;20508;-84
2023/07/16 11:02:43;;;;;;;8.27;1.55;;;27.30;61.30;;;;;;4996200;28;20449;-80
2023/07/16 11:05:11;;;;;;;8.13;2.13;;;27.40;61.20;;;;;;5024242;28;20064;-80
2023/07/16 11:07:38;;;;;;;6.30;1.58;;;27.50;61.00;;;;;;5017041;28;20449;-79
2023/07/16 11:10:05;;;;;;;10.23;2.33;;;27.60;60.70;;;;;;5015126;28;20071;-80
2023/07/16 11:12:36;;;;;;;7.35;2.08;;;27.60;60.30;;;;;;5017472;28;20040;-81
2023/07/16 11:15:06;;;;;;;5.70;2.08;;;27.60;60.20;;;;;;5016043;28;20065;-81
2023/07/16 11:17:40;;;;;;;5.55;2.25;;;27.60;60.10;;;;;;5008128;28;20378;-80
2023/07/16 11:20:08;;;;;;;8.45;1.80;;;27.70;60.50;;;;;;5007031;28;20072;-81
2023/07/16 11:22:37;;;;;;;6.07;2.22;;;27.80;59.90;;;;;;5018544;28;20040;-81
2023/07/16 11:25:13;;;;;;;5.32;1.80;;;27.90;59.50;;;;;;5016760;28;20049;-81
2023/07/16 11:27:41;;;;;;;5.18;2.15;;;28.10;59.40;;;;;;5016074;28;20275;-82
2023/07/16 11:30:10;;;;;;;6.40;2.10;;;28.30;59.40;;;;;;5030004;28;20041;-82
2023/07/16 11:32:42;;;;;;;8.73;2.35;;;28.30;59.10;;;;;;5019558;28;20045;-82
2023/07/16 11:35:15;;;;;;;6.35;2.60;;;28.30;59.00;;;;;;5032664;28;20170;-82
2023/07/16 11:37:47;;;;;;;9.80;3.70;;;28.10;59.00;;;;;;5029541;28;20128;-82
2023/07/16 11:40:18;;;;;;;11.55;3.70;;;27.90;59.10;;;;;;5030982;28;20068;-81
2023/07/16 11:42:47;;;;;;;8.80;3.47;;;27.70;59.10;;;;;;5017191;28;20040;-84
2023/07/16 11:45:27;;;;;;;8.98;3.63;;;27.70;59.20;;;;;;5018591;28;20033;-83
2023/07/16 11:47:59;;;;;;;11.50;4.60;;;27.90;59.10;;;;;;5035715;28;20032;-83
2023/07/16 11:50:31;;;;;;;11.88;5.15;;;28.00;58.90;;;;;;5033185;28;20103;-84
2023/07/16 11:53:03;;;;;;;10.32;5.22;;;28.00;58.70;;;;;;5026077;28;20025;-82
2023/07/16 11:55:30;;;;;;;9.93;4.18;;;28.00;58.80;;;;;;5024154;28;20475;-82
2023/07/16 11:57:59;;;;;;;8.27;4.90;;;28.20;58.70;;;;;;5024816;28;20044;-83
2023/07/16 12:00:25;;;;;;;8.32;4.90;;;28.20;58.70;;;;;;5024459;28;20029;-83
2023/07/16 12:02:54;;;;;;;10.05;4.95;;;28.20;58.70;;;;;;5032933;28;20384;-82
2023/07/16 12:05:27;;;;;;;10.63;4.35;;;28.40;58.60;;;;;;5031232;28;20041;-82
2023/07/16 12:07:59;;;;;;;10.90;4.18;;;28.40;58.20;;;;;;5023274;28;20037;-84
2023/07/16 12:10:28;;;;;;;10.38;4.65;;;28.50;57.80;;;;;;5018542;28;20033;-86
2023/07/16 12:13:00;;;;;;;7.22;3.70;;;28.50;57.60;;;;;;5032904;28;20402;-81
2023/07/16 12:15:26;;;;;;;10.93;3.75;;;28.50;57.40;;;;;;5022527;28;20068;-88
2023/07/16 12:17:52;;;;;;;8.00;3.17;;;28.60;57.20;;;;;;5029142;28;20119;-86
2023/07/16 12:20:18;;;;;;;6.28;3.70;;;28.60;57.10;;;;;;5007399;28;20449;-86
2023/07/16 12:22:44;;;;;;;9.15;3.38;;;28.80;56.90;;;;;;5028446;28;20120;-83
2023/07/16 12:25:10;;;;;;;10.68;3.38;;;29.00;56.40;;;;;;5033688;28;20076;-83
2023/07/16 12:27:36;;;;;;;7.25;3.38;;;29.20;56.10;;;;;;5010295;28;20057;-84
2023/07/16 12:30:03;;;;;;;7.25;2.75;;;29.20;55.80;;;;;;5032441;28;20029;-85
2023/07/16 12:32:31;;;;;;;9.15;3.42;;;29.30;55.50;;;;;;5029734;28;20107;-89
2023/07/16 12:35:00;;;;;;;8.85;3.33;;;29.40;55.90;;;;;;5032227;28;20033;-90
2023/07/16 12:37:29;;;;;;;7.22;2.60;;;29.40;55.90;;;;;;5038182;28;20125;-90
2023/07/16 12:40:01;;;;;;;6.10;2.28;;;29.30;55.20;;;;;;5037701;28;20120;-89
2023/07/16 12:42:28;;;;;;;5.03;2.22;;;29.00;54.70;;;;;;5044899;28;20029;-87
2023/07/16 12:44:54;;;;;;;10.00;2.05;;;28.70;54.30;;;;;;5030272;28;20116;-86